< Typhoon 199404 1994 Season Typhoon 199406 >
Typhoon 199405 (TIM)
General InformationTrack Information on Google MapsDetailed Wind InformationList of All Images || Disaster Info.ResourceGoogle EarthGE AnimationAtom FeedGeoJSON
Detalied Best Track (Time Zone = UTC)
Year Month Day Hour Lat. Long. Pressure (hPa) Wind (kt) Class Image Chart
1994 7 7 00 12.8 131.6 1002 0 2 Image Chart
1994 7 7 06 13.4 131.0 1002 0 2 Image Chart
1994 7 7 12 14.0 130.5 1000 0 2 Image Chart
1994 7 7 18 14.7 130.0 998 0 2 Image Chart
1994 7 8 00 15.7 129.7 996 35 3 Image Chart
1994 7 8 06 16.2 129.2 994 40 3 Image Chart
1994 7 8 09 16.4 128.9 990 45 3 Image Chart
1994 7 8 12 16.6 128.6 985 50 4 Image Chart
1994 7 8 15 16.9 128.3 980 55 4 Image Chart
1994 7 8 18 17.3 127.9 975 60 4 Image Chart
1994 7 8 21 17.7 127.5 970 65 5 Image Chart
1994 7 9 00 18.1 126.9 960 75 5 Image Chart
1994 7 9 03 18.3 126.5 960 75 5 Image Chart
1994 7 9 06 18.5 126.0 950 80 5 Image Chart
1994 7 9 09 18.7 125.7 945 85 5 Image Chart
1994 7 9 12 19.1 125.4 940 85 5 Image Chart
1994 7 9 15 19.6 124.9 940 85 5 Image Chart
1994 7 9 18 20.0 124.3 935 90 5 Image Chart
1994 7 9 21 20.4 123.9 935 90 5 Image Chart
1994 7 10 00 20.9 123.5 930 95 5 Image Chart
1994 7 10 03 21.5 123.0 930 95 5 Image Chart
1994 7 10 06 21.9 122.5 930 95 5 Image Chart
1994 7 10 09 22.6 122.3 930 95 5 Image Chart
1994 7 10 12 23.4 121.6 940 90 5 Image Chart
1994 7 10 15 23.8 120.0 950 80 5 Image Chart
1994 7 10 18 24.6 119.6 955 75 5 Image Chart
1994 7 11 00 25.3 117.7 965 70 5 Image Chart
1994 7 11 06 25.9 116.3 975 60 4 Image Chart
1994 7 11 12 26.9 115.4 990 40 3 Image Chart
1994 7 11 18 27.3 115.1 992 0 2 Image Chart
1994 7 12 00 28.0 115.0 992 0 2 Image Chart
Japan Meteorological Agency Best Track Data | Correction Date : 1995-01-30
< Typhoon 199404 1994 Season Typhoon 199406 >

Help